createdAt,value
2018-02-21T00:02:57.078Z,-1.50
2018-02-21T00:06:00.372Z,-1.56
2018-02-21T00:09:03.666Z,-1.45
2018-02-21T00:12:06.958Z,-1.64
2018-02-21T00:15:10.397Z,-1.84
2018-02-21T00:18:13.694Z,-1.65
2018-02-21T00:21:17.160Z,-1.61
2018-02-21T00:24:20.439Z,-1.76
2018-02-21T00:27:23.719Z,-1.95
2018-02-21T00:30:27.768Z,-2.15
2018-02-21T00:33:31.038Z,-2.15
2018-02-21T00:36:34.347Z,-1.84
2018-02-21T00:39:37.632Z,-1.49
2018-02-21T00:42:40.914Z,-2.00
2018-02-21T00:45:45.292Z,-2.15
2018-02-21T00:48:48.575Z,-2.23
2018-02-21T00:51:53.114Z,-2.21
2018-02-21T00:54:56.402Z,-2.19
2018-02-21T00:57:59.689Z,-2.17
2018-02-21T01:01:02.986Z,-2.19
2018-02-21T01:04:06.265Z,-2.05
2018-02-21T01:07:13.182Z,-1.90
2018-02-21T01:10:16.454Z,-1.99
2018-02-21T01:13:19.757Z,-1.90
2018-02-21T01:16:23.855Z,-1.84
2018-02-21T01:19:28.730Z,-2.05
2018-02-21T01:22:32.218Z,-2.04
2018-02-21T01:25:35.504Z,-2.02
2018-02-21T01:28:38.796Z,-2.11
2018-02-21T01:31:42.080Z,-2.14
2018-02-21T01:34:46.121Z,-2.11
2018-02-21T01:37:49.400Z,-2.07
2018-02-21T01:40:52.681Z,-2.14
2018-02-21T01:43:56.733Z,-2.05
2018-02-21T01:47:00.047Z,-2.04
2018-02-21T01:50:03.958Z,-2.07
2018-02-21T01:53:07.250Z,-2.02
2018-02-21T01:56:10.525Z,-2.07
2018-02-21T01:59:14.492Z,-2.07
2018-02-21T02:02:17.778Z,-2.02
2018-02-21T02:05:21.058Z,-2.01
2018-02-21T02:08:25.992Z,-1.97
2018-02-21T02:11:29.262Z,-2.03
2018-02-21T02:14:32.554Z,-2.04
2018-02-21T02:17:35.838Z,-2.06
2018-02-21T02:20:39.870Z,-2.05
2018-02-21T02:23:43.910Z,-1.91
2018-02-21T02:26:47.204Z,-1.74
2018-02-21T02:29:50.489Z,-1.56
2018-02-21T02:32:53.783Z,-1.49
2018-02-21T02:35:57.873Z,-1.37
2018-02-21T02:39:19.674Z,-1.26
2018-02-21T02:42:22.960Z,-1.24
2018-02-21T02:45:26.234Z,-1.56
2018-02-21T02:48:29.524Z,-1.66
2018-02-21T02:51:32.794Z,-1.46
2018-02-21T02:54:36.855Z,-1.45
2018-02-21T02:57:41.869Z,-1.35
2018-02-21T03:00:45.146Z,-1.33
2018-02-21T03:03:49.189Z,-1.27
2018-02-21T03:06:52.474Z,-1.28
2018-02-21T03:09:57.637Z,-1.27
2018-02-21T03:13:00.922Z,-1.32
2018-02-21T03:16:04.226Z,-1.37
2018-02-21T03:19:07.499Z,-1.39
2018-02-21T03:22:11.543Z,-1.29
2018-02-21T03:25:14.813Z,-1.25
2018-02-21T03:28:18.861Z,-1.38
2018-02-21T03:31:22.150Z,-1.54
2018-02-21T03:34:25.612Z,-1.63
2018-02-21T03:37:29.685Z,-1.57
2018-02-21T03:40:32.977Z,-1.50
2018-02-21T03:43:36.283Z,-1.46
2018-02-21T03:46:39.569Z,-1.40
2018-02-21T03:49:42.869Z,-1.37
2018-02-21T03:52:46.189Z,-1.33
2018-02-21T03:55:49.453Z,-1.29
2018-02-21T03:58:52.739Z,-1.26
2018-02-21T04:01:56.015Z,-1.38
2018-02-21T04:04:59.302Z,-1.27
2018-02-21T04:08:03.350Z,-1.28
2018-02-21T04:11:06.617Z,-1.21
2018-02-21T04:14:10.658Z,-1.29
2018-02-21T04:17:13.978Z,-1.39
2018-02-21T04:20:17.253Z,-1.60
2018-02-21T04:23:20.529Z,-1.46
2018-02-21T04:26:24.572Z,-1.56
2018-02-21T04:29:29.894Z,-1.50
2018-02-21T04:32:34.982Z,-1.54
2018-02-21T04:35:38.297Z,-1.42
2018-02-21T04:38:42.421Z,-1.72
2018-02-21T04:41:45.701Z,-1.61
2018-02-21T04:44:48.977Z,-1.73
2018-02-21T04:47:52.260Z,-1.56
2018-02-21T04:50:55.544Z,-1.59
2018-02-21T04:53:59.945Z,-1.63
2018-02-21T05:00:48.508Z,-1.63
2018-02-21T05:03:51.805Z,-1.70
2018-02-21T05:06:55.083Z,-1.73
2018-02-21T05:09:58.365Z,-1.68
2018-02-21T05:13:02.971Z,-1.69
2018-02-21T05:16:06.272Z,-1.76
2018-02-21T05:19:09.540Z,-1.67
2018-02-21T05:22:14.466Z,-1.73
2018-02-21T05:25:19.346Z,-1.68
2018-02-21T05:28:27.134Z,-1.63
2018-02-21T05:31:31.288Z,-1.57
2018-02-21T05:34:34.573Z,-1.42
2018-02-21T05:37:37.843Z,-1.48
2018-02-21T05:40:41.881Z,-1.53
2018-02-21T05:43:45.156Z,-1.42
2018-02-21T05:46:49.262Z,-1.51
2018-02-21T05:49:54.301Z,-1.44
2018-02-21T05:52:58.338Z,-1.41
2018-02-21T05:56:01.774Z,-1.42
2018-02-21T05:59:05.062Z,-1.46
2018-02-21T06:02:08.331Z,-1.41
2018-02-21T06:05:11.653Z,-1.33
2018-02-21T06:08:15.024Z,-1.41
2018-02-21T06:11:18.368Z,-1.59
2018-02-21T06:14:21.614Z,-1.50
2018-02-21T06:17:25.686Z,-1.45
2018-02-21T06:20:28.989Z,-1.40
2018-02-21T06:23:32.742Z,-1.39
2018-02-21T06:26:36.791Z,-1.25
2018-02-21T06:29:40.197Z,-1.37
2018-02-21T06:32:43.471Z,-1.26
2018-02-21T06:35:46.762Z,-1.25
2018-02-21T06:38:50.037Z,-1.21
2018-02-21T06:41:54.069Z,-1.12
2018-02-21T06:44:58.139Z,-1.11
2018-02-21T06:48:01.570Z,-1.00
2018-02-21T06:51:05.621Z,-0.99
2018-02-21T06:54:08.897Z,-0.89
2018-02-21T06:57:12.206Z,-1.05
2018-02-21T07:00:15.486Z,-0.98
2018-02-21T07:03:18.777Z,-1.11
2018-02-21T07:06:22.817Z,-1.19
2018-02-21T07:09:27.074Z,-1.15
2018-02-21T07:12:30.354Z,-0.94
2018-02-21T07:15:34.644Z,-0.99
2018-02-21T07:18:38.642Z,-1.07
2018-02-21T07:21:42.699Z,-0.92
2018-02-21T07:24:45.980Z,-0.99
2018-02-21T07:27:49.247Z,-0.88
2018-02-21T07:30:53.308Z,-0.64
2018-02-21T07:33:56.593Z,-0.42
2018-02-21T07:36:59.881Z,-0.38
2018-02-21T07:40:03.407Z,-0.49
2018-02-21T07:43:07.512Z,-0.79
2018-02-21T07:46:10.790Z,-0.65
2018-02-21T07:49:14.074Z,-0.47
2018-02-21T07:52:18.116Z,-0.90
2018-02-21T07:55:21.406Z,-0.40
2018-02-21T07:58:24.672Z,-0.46
2018-02-21T08:01:27.966Z,-0.46
2018-02-21T08:04:32.020Z,0.02
2018-02-21T08:07:36.328Z,0.03
2018-02-21T08:10:40.369Z,-0.46
2018-02-21T08:13:43.648Z,-0.55
2018-02-21T08:16:46.962Z,-0.04
2018-02-21T08:19:51.905Z,0.05
2018-02-21T08:22:55.189Z,-0.07
2018-02-21T08:25:58.462Z,0.07
2018-02-21T08:29:02.500Z,0.11
2018-02-21T08:32:07.030Z,0.03
2018-02-21T08:35:10.296Z,0.39
2018-02-21T08:38:14.330Z,0.59
2018-02-21T08:41:17.618Z,0.74
2018-02-21T08:44:21.642Z,0.75
2018-02-21T08:47:24.945Z,0.89
2018-02-21T08:50:28.223Z,1.13
2018-02-21T08:53:32.253Z,1.03
2018-02-21T08:56:35.530Z,0.65
2018-02-21T08:59:39.591Z,0.35
2018-02-21T09:02:42.893Z,-0.06
2018-02-21T09:05:46.354Z,0.34
2018-02-21T09:08:49.726Z,-0.26
2018-02-21T09:11:52.999Z,0.61
2018-02-21T09:14:56.284Z,1.19
2018-02-21T09:17:59.540Z,1.95
2018-02-21T09:21:03.581Z,2.42
2018-02-21T09:24:06.866Z,3.25
2018-02-21T09:27:10.165Z,2.76
2018-02-21T09:30:13.433Z,2.35
2018-02-21T09:33:16.747Z,2.61
2018-02-21T09:36:20.809Z,2.39
2018-02-21T09:39:24.074Z,2.25
2018-02-21T09:42:27.365Z,2.51
2018-02-21T09:45:31.402Z,2.27
2018-02-21T09:48:34.703Z,2.31
2018-02-21T09:51:37.997Z,2.40
2018-02-21T09:54:41.268Z,2.27
2018-02-21T09:57:45.297Z,2.21
2018-02-21T10:00:48.566Z,2.00
2018-02-21T10:03:52.599Z,1.50
2018-02-21T10:06:55.874Z,1.08
2018-02-21T10:09:59.904Z,1.48
2018-02-21T10:13:03.949Z,1.10
2018-02-21T10:16:07.226Z,1.57
2018-02-21T10:19:10.832Z,1.34
2018-02-21T10:22:14.187Z,1.58
2018-02-21T10:25:17.448Z,2.12
2018-02-21T10:28:20.718Z,1.48
2018-02-21T10:31:24.015Z,0.73
2018-02-21T10:34:27.275Z,1.13
2018-02-21T10:37:30.546Z,1.14
2018-02-21T10:40:33.802Z,0.92
2018-02-21T10:43:37.081Z,0.77
2018-02-21T10:46:41.590Z,1.30
2018-02-21T10:49:44.884Z,2.52
2018-02-21T10:52:48.149Z,2.45
2018-02-21T10:55:51.419Z,1.64
2018-02-21T10:58:55.606Z,1.93
2018-02-21T11:01:58.871Z,1.65
2018-02-21T11:05:02.135Z,2.19
2018-02-21T11:08:05.418Z,2.17
2018-02-21T11:11:09.455Z,2.28
2018-02-21T11:14:13.051Z,2.16
2018-02-21T11:17:16.330Z,2.68
2018-02-21T11:20:20.370Z,3.15
2018-02-21T11:23:23.645Z,3.38
2018-02-21T11:26:27.686Z,3.81
2018-02-21T11:29:30.955Z,2.85
2018-02-21T11:32:35.134Z,2.80
2018-02-21T11:35:38.510Z,2.70
2018-02-21T11:38:41.798Z,3.67
2018-02-21T11:41:45.075Z,3.45
2018-02-21T11:44:49.304Z,3.46
2018-02-21T11:47:52.623Z,3.12
2018-02-21T11:50:55.956Z,2.85
2018-02-21T11:53:59.209Z,2.83
2018-02-21T11:57:02.476Z,2.37
2018-02-21T12:00:06.527Z,2.49
2018-02-21T12:03:09.914Z,2.84
2018-02-21T12:06:14.257Z,2.73
2018-02-21T12:09:17.541Z,2.47
2018-02-21T12:12:20.858Z,2.98
2018-02-21T12:15:24.132Z,2.60
2018-02-21T12:18:27.475Z,2.76
2018-02-21T12:21:30.763Z,3.04
2018-02-21T12:24:34.053Z,3.12
2018-02-21T12:27:37.707Z,2.88
2018-02-21T12:30:41.757Z,2.27
2018-02-21T12:33:46.070Z,2.40
2018-02-21T12:36:49.350Z,2.25
2018-02-21T12:39:52.618Z,2.09
2018-02-21T12:42:55.890Z,1.97
2018-02-21T12:45:59.152Z,2.25
2018-02-21T12:49:02.534Z,2.68
2018-02-21T12:52:06.653Z,3.39
2018-02-21T12:55:10.840Z,3.54
2018-02-21T12:58:14.152Z,3.41
2018-02-21T13:01:17.458Z,3.09
2018-02-21T13:04:21.551Z,3.15
2018-02-21T13:07:24.845Z,3.85
2018-02-21T13:10:28.180Z,3.58
2018-02-21T13:13:32.366Z,3.75
2018-02-21T13:16:35.657Z,3.42
2018-02-21T13:19:39.007Z,2.53
2018-02-21T13:22:42.304Z,2.81
2018-02-21T13:25:45.574Z,2.45
2018-02-21T13:28:49.611Z,2.29
2018-02-21T13:31:53.956Z,2.56
2018-02-21T13:34:57.242Z,2.47
2018-02-21T13:38:00.543Z,2.49
2018-02-21T13:41:03.810Z,2.04
2018-02-21T13:44:07.982Z,2.14
2018-02-21T13:47:11.335Z,2.29
2018-02-21T13:50:15.470Z,2.12
2018-02-21T13:53:18.774Z,2.08
2018-02-21T13:56:22.052Z,1.73
2018-02-21T13:59:25.586Z,1.33
2018-02-21T14:02:29.019Z,1.54
2018-02-21T14:05:32.872Z,1.33
2018-02-21T14:08:36.540Z,1.34
2018-02-21T14:11:39.817Z,1.60
2018-02-21T14:14:43.133Z,1.87
2018-02-21T14:17:46.878Z,2.10
2018-02-21T14:20:50.153Z,1.60
2018-02-21T14:23:54.194Z,1.52
2018-02-21T14:26:57.493Z,1.62
2018-02-21T14:30:00.740Z,1.51
2018-02-21T14:33:04.035Z,1.51
2018-02-21T14:36:07.346Z,1.44
2018-02-21T14:39:11.426Z,1.29
2018-02-21T14:42:14.715Z,0.92
2018-02-21T14:45:18.403Z,1.19
2018-02-21T14:48:21.660Z,0.87
2018-02-21T14:51:24.943Z,0.70
2018-02-21T14:54:28.239Z,0.48
2018-02-21T14:57:31.525Z,0.35
2018-02-21T15:00:34.889Z,0.50
2018-02-21T15:03:38.598Z,0.43
2018-02-21T15:06:41.997Z,0.58
2018-02-21T15:09:45.502Z,0.52
2018-02-21T15:12:53.307Z,0.49
2018-02-21T15:15:57.661Z,0.45
2018-02-21T15:19:00.944Z,0.57
2018-02-21T15:22:04.226Z,0.57
2018-02-21T15:25:07.510Z,0.45
2018-02-21T15:28:11.552Z,0.33
2018-02-21T15:31:14.851Z,0.33
2018-02-21T15:34:18.133Z,0.24
2018-02-21T15:37:23.132Z,0.21
2018-02-21T15:40:26.406Z,0.32
2018-02-21T15:43:29.777Z,0.25
2018-02-21T15:46:33.104Z,0.38
2018-02-21T15:49:36.473Z,0.54
2018-02-21T15:52:39.750Z,0.56
2018-02-21T15:55:43.798Z,0.56
2018-02-21T15:58:47.071Z,0.54
2018-02-21T16:01:51.134Z,0.48
2018-02-21T16:04:54.395Z,0.46
2018-02-21T16:07:57.666Z,0.44
2018-02-21T16:11:01.717Z,0.35
2018-02-21T16:14:04.978Z,0.36
2018-02-21T16:17:08.307Z,0.34
2018-02-21T16:20:11.670Z,0.30
2018-02-21T16:23:15.006Z,0.34
2018-02-21T16:26:18.554Z,0.24
2018-02-21T16:29:24.577Z,0.27
2018-02-21T16:32:29.457Z,0.13
2018-02-21T16:35:34.458Z,0.25
2018-02-21T16:38:37.905Z,0.23
2018-02-21T16:41:42.095Z,0.04
2018-02-21T16:44:48.015Z,0.04
2018-02-21T16:47:51.326Z,0.13
2018-02-21T16:50:54.649Z,0.09
2018-02-21T16:54:03.360Z,0.16
2018-02-21T16:57:06.654Z,0.16
2018-02-21T17:00:10.025Z,0.07
2018-02-21T17:03:13.492Z,0.02
2018-02-21T17:06:17.579Z,0.07
2018-02-21T17:09:22.084Z,0.22
2018-02-21T17:12:25.523Z,0.21
2018-02-21T17:15:30.314Z,0.18
2018-02-21T17:18:35.403Z,0.26
2018-02-21T17:21:39.206Z,0.21
2018-02-21T17:24:42.482Z,0.27
2018-02-21T17:27:45.757Z,0.22
2018-02-21T17:30:49.079Z,0.23
2018-02-21T17:34:09.237Z,0.26
2018-02-21T17:37:14.122Z,0.21
2018-02-21T17:40:17.397Z,0.16
2018-02-21T17:43:20.690Z,0.09
2018-02-21T17:46:23.977Z,0.12
2018-02-21T17:49:27.571Z,-0.04
2018-02-21T17:52:31.947Z,-0.10
2018-02-21T17:55:35.572Z,-0.12
2018-02-21T17:58:39.703Z,-0.07
2018-02-21T18:01:43.089Z,-0.05
2018-02-21T18:04:46.428Z,0.02
2018-02-21T18:07:49.737Z,-0.08
2018-02-21T18:10:53.021Z,-0.05
2018-02-21T18:13:56.310Z,-0.17
2018-02-21T18:17:00.462Z,-0.21
2018-02-21T18:20:05.508Z,-0.46
2018-02-21T18:23:10.210Z,-0.58
2018-02-21T18:26:13.525Z,-0.63
2018-02-21T18:29:17.202Z,-0.75
2018-02-21T18:32:20.850Z,-0.46
2018-02-21T18:35:26.038Z,-0.46
2018-02-21T18:38:29.774Z,-0.46
2018-02-21T18:41:33.662Z,-0.44
2018-02-21T18:44:37.266Z,-0.35
2018-02-21T18:47:40.667Z,-0.39
2018-02-21T18:50:44.485Z,-0.41
2018-02-21T18:53:48.123Z,-0.33
2018-02-21T18:56:52.470Z,-0.39
2018-02-21T18:59:57.822Z,-0.47
2018-02-21T19:03:01.926Z,-0.47
2018-02-21T19:06:05.459Z,-0.46
2018-02-21T19:09:09.107Z,-0.41
2018-02-21T19:12:13.784Z,-0.28
2018-02-21T19:15:17.348Z,-0.32
2018-02-21T19:18:20.757Z,-0.32
2018-02-21T19:21:24.290Z,-0.46
2018-02-21T19:24:30.088Z,-0.57
2018-02-21T19:27:33.990Z,-0.60
2018-02-21T19:30:37.342Z,-0.56
2018-02-21T19:33:40.763Z,-0.47
2018-02-21T19:36:45.056Z,-0.46
2018-02-21T19:39:48.694Z,-0.45
2018-02-21T19:42:52.179Z,-0.39
2018-02-21T19:45:56.561Z,-0.59
2018-02-21T19:49:00.993Z,-0.63
2018-02-21T19:52:04.571Z,-0.56
2018-02-21T19:55:08.900Z,-0.63
2018-02-21T19:58:12.220Z,-0.70
2018-02-21T20:01:16.371Z,-0.67
2018-02-21T20:04:20.077Z,-0.63
2018-02-21T20:07:23.574Z,-0.55
2018-02-21T20:10:27.477Z,-0.54
2018-02-21T20:13:30.856Z,-0.52
2018-02-21T20:16:34.373Z,-0.56
2018-02-21T20:19:37.766Z,-0.54
2018-02-21T20:22:41.098Z,-0.53
2018-02-21T20:25:45.302Z,-0.60
2018-02-21T20:28:49.380Z,-0.62
2018-02-21T20:31:52.654Z,-0.60
2018-02-21T20:34:56.176Z,-0.57
2018-02-21T20:38:00.294Z,-0.72
2018-02-21T20:41:04.619Z,-0.63
2018-02-21T20:44:07.940Z,-0.74
2018-02-21T20:47:11.226Z,-0.92
2018-02-21T20:50:14.689Z,-1.02
2018-02-21T20:53:17.961Z,-0.84
2018-02-21T20:56:21.295Z,-0.79
2018-02-21T20:59:25.380Z,-0.87
2018-02-21T21:02:28.818Z,-0.86
2018-02-21T21:05:32.865Z,-0.85
2018-02-21T21:08:36.468Z,-0.84
2018-02-21T21:11:39.747Z,-0.80
2018-02-21T21:14:43.875Z,-0.89
2018-02-21T21:17:47.997Z,-0.98
2018-02-21T21:20:51.265Z,-0.99
2018-02-21T21:23:54.541Z,-1.18
2018-02-21T21:26:57.903Z,-1.17
2018-02-21T21:30:01.610Z,-1.29
2018-02-21T21:33:04.877Z,-1.20
2018-02-21T21:36:09.021Z,-1.22
2018-02-21T21:39:12.351Z,-1.23
2018-02-21T21:42:15.914Z,-1.25
2018-02-21T21:45:19.262Z,-1.30
2018-02-21T21:48:22.525Z,-1.36
2018-02-21T21:51:25.789Z,-1.35
2018-02-21T21:54:29.935Z,-1.30
2018-02-21T21:57:33.206Z,-1.34
2018-02-21T22:00:37.251Z,-1.41
2018-02-21T22:03:40.554Z,-1.44
2018-02-21T22:06:43.832Z,-1.55
2018-02-21T22:09:47.873Z,-1.60
2018-02-21T22:12:51.255Z,-1.53
2018-02-21T22:15:54.530Z,-1.59
2018-02-21T22:18:58.861Z,-1.59
2018-02-21T22:22:03.272Z,-1.52
2018-02-21T22:25:07.343Z,-1.69
2018-02-21T22:28:10.607Z,-1.63
2018-02-21T22:31:14.006Z,-1.63
2018-02-21T22:34:17.305Z,-1.62
2018-02-21T22:37:20.570Z,-1.66
2018-02-21T22:40:23.893Z,-1.73
2018-02-21T22:43:27.934Z,-1.75
2018-02-21T22:46:31.216Z,-1.75
2018-02-21T22:49:34.586Z,-1.78
2018-02-21T22:52:37.857Z,-1.83
2018-02-21T22:55:41.140Z,-1.78
2018-02-21T22:58:44.520Z,-1.82
2018-02-21T23:01:47.795Z,-1.93
2018-02-21T23:04:51.837Z,-2.09
2018-02-21T23:08:12.215Z,-2.23
2018-02-21T23:11:16.337Z,-2.37
2018-02-21T23:14:19.645Z,-2.41
2018-02-21T23:17:22.919Z,-2.50
2018-02-21T23:20:26.956Z,-2.59
2018-02-21T23:23:30.235Z,-2.58
2018-02-21T23:26:35.624Z,-2.67
2018-02-21T23:29:38.988Z,-2.70
2018-02-21T23:32:43.031Z,-2.71
2018-02-21T23:35:46.353Z,-2.74
2018-02-21T23:38:49.629Z,-2.81
2018-02-21T23:41:53.005Z,-2.75
2018-02-21T23:44:56.312Z,-2.84
2018-02-21T23:47:59.588Z,-2.87
2018-02-21T23:51:03.726Z,-2.90
2018-02-21T23:54:07.086Z,-2.93
2018-02-21T23:57:11.141Z,-2.98
